sensor_id;sensor_type;location;lat;lon;timestamp;P1;durP1;ratioP1;P2;durP2;ratioP2
2888;SDS011;1453;42.708;23.282;2023-12-28T00:01:34;32.90;;;19.97;;
2888;SDS011;1453;42.708;23.282;2023-12-28T00:04:00;34.13;;;19.17;;
2888;SDS011;1453;42.708;23.282;2023-12-28T00:06:26;34.57;;;20.37;;
2888;SDS011;1453;42.708;23.282;2023-12-28T00:08:52;36.93;;;20.27;;
2888;SDS011;1453;42.708;23.282;2023-12-28T00:11:18;32.90;;;19.53;;
2888;SDS011;1453;42.708;23.282;2023-12-28T00:13:45;29.80;;;20.02;;
2888;SDS011;1453;42.708;23.282;2023-12-28T00:16:11;36.60;;;20.47;;
2888;SDS011;1453;42.708;23.282;2023-12-28T00:18:37;31.63;;;20.20;;
2888;SDS011;1453;42.708;23.282;2023-12-28T00:21:03;31.23;;;19.93;;
2888;SDS011;1453;42.708;23.282;2023-12-28T00:23:29;32.88;;;19.27;;
2888;SDS011;1453;42.708;23.282;2023-12-28T00:25:55;42.50;;;24.70;;
2888;SDS011;1453;42.708;23.282;2023-12-28T00:28:21;34.73;;;21.80;;
2888;SDS011;1453;42.708;23.282;2023-12-28T00:30:47;31.33;;;21.40;;
2888;SDS011;1453;42.708;23.282;2023-12-28T00:33:13;45.80;;;24.77;;
2888;SDS011;1453;42.708;23.282;2023-12-28T00:35:39;42.30;;;23.70;;
2888;SDS011;1453;42.708;23.282;2023-12-28T00:38:05;32.88;;;21.88;;
2888;SDS011;1453;42.708;23.282;2023-12-28T00:40:31;37.60;;;22.03;;
2888;SDS011;1453;42.708;23.282;2023-12-28T00:42:57;39.57;;;22.20;;
2888;SDS011;1453;42.708;23.282;2023-12-28T00:45:23;29.97;;;20.80;;
2888;SDS011;1453;42.708;23.282;2023-12-28T00:47:49;35.20;;;22.00;;
2888;SDS011;1453;42.708;23.282;2023-12-28T00:50:17;33.08;;;20.00;;
2888;SDS011;1453;42.708;23.282;2023-12-28T00:52:43;40.85;;;21.30;;
2888;SDS011;1453;42.708;23.282;2023-12-28T00:55:10;34.22;;;21.10;;
2888;SDS011;1453;42.708;23.282;2023-12-28T00:57:36;37.92;;;21.95;;
2888;SDS011;1453;42.708;23.282;2023-12-28T01:00:02;37.10;;;23.00;;
2888;SDS011;1453;42.708;23.282;2023-12-28T01:02:29;34.92;;;21.10;;
2888;SDS011;1453;42.708;23.282;2023-12-28T01:04:55;31.77;;;20.60;;
2888;SDS011;1453;42.708;23.282;2023-12-28T01:07:21;31.00;;;20.23;;
2888;SDS011;1453;42.708;23.282;2023-12-28T01:09:46;40.47;;;28.70;;
2888;SDS011;1453;42.708;23.282;2023-12-28T01:12:12;75.30;;;42.17;;
2888;SDS011;1453;42.708;23.282;2023-12-28T01:14:38;39.40;;;27.57;;
2888;SDS011;1453;42.708;23.282;2023-12-28T01:17:04;37.17;;;24.00;;
2888;SDS011;1453;42.708;23.282;2023-12-28T01:19:30;39.73;;;24.27;;
2888;SDS011;1453;42.708;23.282;2023-12-28T01:21:56;97.70;;;51.30;;
2888;SDS011;1453;42.708;23.282;2023-12-28T01:24:22;76.07;;;40.30;;
2888;SDS011;1453;42.708;23.282;2023-12-28T01:26:49;123.72;;;63.83;;
2888;SDS011;1453;42.708;23.282;2023-12-28T01:29:15;92.40;;;49.83;;
2888;SDS011;1453;42.708;23.282;2023-12-28T01:31:41;102.23;;;56.40;;
2888;SDS011;1453;42.708;23.282;2023-12-28T01:34:07;92.23;;;48.13;;
2888;SDS011;1453;42.708;23.282;2023-12-28T01:36:34;63.33;;;36.20;;
2888;SDS011;1453;42.708;23.282;2023-12-28T01:39:00;82.85;;;47.05;;
2888;SDS011;1453;42.708;23.282;2023-12-28T01:41:26;66.20;;;40.50;;
2888;SDS011;1453;42.708;23.282;2023-12-28T01:43:52;44.00;;;27.60;;
2888;SDS011;1453;42.708;23.282;2023-12-28T01:46:18;53.40;;;30.60;;
2888;SDS011;1453;42.708;23.282;2023-12-28T01:48:49;44.88;;;26.05;;
2888;SDS011;1453;42.708;23.282;2023-12-28T01:51:16;43.20;;;24.77;;
2888;SDS011;1453;42.708;23.282;2023-12-28T01:53:42;38.65;;;22.85;;
2888;SDS011;1453;42.708;23.282;2023-12-28T01:56:10;44.17;;;24.75;;
2888;SDS011;1453;42.708;23.282;2023-12-28T01:58:36;35.38;;;22.33;;
2888;SDS011;1453;42.708;23.282;2023-12-28T02:01:05;40.22;;;22.48;;
2888;SDS011;1453;42.708;23.282;2023-12-28T02:03:32;43.65;;;23.63;;
2888;SDS011;1453;42.708;23.282;2023-12-28T02:05:58;39.80;;;23.08;;
2888;SDS011;1453;42.708;23.282;2023-12-28T02:08:26;35.15;;;21.90;;
2888;SDS011;1453;42.708;23.282;2023-12-28T02:10:52;51.97;;;29.50;;
2888;SDS011;1453;42.708;23.282;2023-12-28T02:13:20;48.72;;;24.70;;
2888;SDS011;1453;42.708;23.282;2023-12-28T02:15:46;43.58;;;23.95;;
2888;SDS011;1453;42.708;23.282;2023-12-28T02:18:21;36.42;;;22.63;;
2888;SDS011;1453;42.708;23.282;2023-12-28T02:20:56;35.15;;;23.00;;
2888;SDS011;1453;42.708;23.282;2023-12-28T02:23:23;51.20;;;28.95;;
2888;SDS011;1453;42.708;23.282;2023-12-28T02:25:49;51.40;;;30.10;;
2888;SDS011;1453;42.708;23.282;2023-12-28T02:28:15;44.90;;;26.70;;
2888;SDS011;1453;42.708;23.282;2023-12-28T02:30:41;44.63;;;26.97;;
2888;SDS011;1453;42.708;23.282;2023-12-28T02:36:16;42.50;;;25.98;;
2888;SDS011;1453;42.708;23.282;2023-12-28T02:38:48;45.90;;;26.20;;
2888;SDS011;1453;42.708;23.282;2023-12-28T02:41:16;44.92;;;25.38;;
2888;SDS011;1453;42.708;23.282;2023-12-28T02:43:42;42.63;;;25.55;;
2888;SDS011;1453;42.708;23.282;2023-12-28T02:46:08;47.50;;;28.48;;
2888;SDS011;1453;42.708;23.282;2023-12-28T02:48:35;42.78;;;26.75;;
2888;SDS011;1453;42.708;23.282;2023-12-28T02:51:01;42.88;;;25.67;;
2888;SDS011;1453;42.708;23.282;2023-12-28T02:53:27;43.50;;;26.15;;
2888;SDS011;1453;42.708;23.282;2023-12-28T02:55:53;47.07;;;28.10;;
2888;SDS011;1453;42.708;23.282;2023-12-28T02:58:18;43.53;;;26.60;;
2888;SDS011;1453;42.708;23.282;2023-12-28T03:00:44;47.83;;;28.15;;
2888;SDS011;1453;42.708;23.282;2023-12-28T03:03:10;44.50;;;24.40;;
2888;SDS011;1453;42.708;23.282;2023-12-28T03:05:36;45.07;;;25.20;;
2888;SDS011;1453;42.708;23.282;2023-12-28T03:08:02;42.53;;;26.27;;
2888;SDS011;1453;42.708;23.282;2023-12-28T03:10:29;48.00;;;27.38;;
2888;SDS011;1453;42.708;23.282;2023-12-28T03:12:55;38.90;;;26.23;;
2888;SDS011;1453;42.708;23.282;2023-12-28T03:15:21;43.35;;;26.15;;
2888;SDS011;1453;42.708;23.282;2023-12-28T03:17:47;41.70;;;24.63;;
2888;SDS011;1453;42.708;23.282;2023-12-28T03:20:16;42.92;;;24.58;;
2888;SDS011;1453;42.708;23.282;2023-12-28T03:22:42;46.45;;;26.85;;
2888;SDS011;1453;42.708;23.282;2023-12-28T03:25:10;41.95;;;24.85;;
2888;SDS011;1453;42.708;23.282;2023-12-28T03:27:36;51.50;;;26.50;;
2888;SDS011;1453;42.708;23.282;2023-12-28T03:30:02;46.47;;;25.20;;
2888;SDS011;1453;42.708;23.282;2023-12-28T03:32:32;42.00;;;24.58;;
2888;SDS011;1453;42.708;23.282;2023-12-28T03:35:03;40.97;;;25.42;;
2888;SDS011;1453;42.708;23.282;2023-12-28T03:37:31;44.08;;;24.95;;
2888;SDS011;1453;42.708;23.282;2023-12-28T03:39:58;45.53;;;25.60;;
2888;SDS011;1453;42.708;23.282;2023-12-28T03:42:24;50.53;;;25.20;;
2888;SDS011;1453;42.708;23.282;2023-12-28T03:44:50;46.33;;;27.60;;
2888;SDS011;1453;42.708;23.282;2023-12-28T03:47:15;39.30;;;24.43;;
2888;SDS011;1453;42.708;23.282;2023-12-28T03:49:41;44.23;;;25.70;;
2888;SDS011;1453;42.708;23.282;2023-12-28T03:52:07;41.10;;;24.43;;
2888;SDS011;1453;42.708;23.282;2023-12-28T03:54:33;46.97;;;23.30;;
2888;SDS011;1453;42.708;23.282;2023-12-28T03:56:59;30.77;;;20.70;;
2888;SDS011;1453;42.708;23.282;2023-12-28T03:59:26;31.20;;;18.55;;
2888;SDS011;1453;42.708;23.282;2023-12-28T04:01:52;34.60;;;18.20;;
2888;SDS011;1453;42.708;23.282;2023-12-28T04:04:18;30.33;;;18.47;;
2888;SDS011;1453;42.708;23.282;2023-12-28T04:06:44;32.10;;;18.33;;
2888;SDS011;1453;42.708;23.282;2023-12-28T04:09:13;26.50;;;16.27;;
2888;SDS011;1453;42.708;23.282;2023-12-28T04:11:40;27.50;;;18.33;;
2888;SDS011;1453;42.708;23.282;2023-12-28T04:14:06;34.05;;;18.95;;
2888;SDS011;1453;42.708;23.282;2023-12-28T04:16:32;28.60;;;17.05;;
2888;SDS011;1453;42.708;23.282;2023-12-28T04:18:58;32.30;;;20.40;;
2888;SDS011;1453;42.708;23.282;2023-12-28T04:21:24;41.27;;;23.50;;
2888;SDS011;1453;42.708;23.282;2023-12-28T04:23:50;58.43;;;35.13;;
2888;SDS011;1453;42.708;23.282;2023-12-28T04:26:17;85.10;;;46.83;;
2888;SDS011;1453;42.708;23.282;2023-12-28T04:28:46;106.30;;;59.70;;
2888;SDS011;1453;42.708;23.282;2023-12-28T04:31:12;130.87;;;68.90;;
2888;SDS011;1453;42.708;23.282;2023-12-28T04:33:38;89.00;;;50.40;;
2888;SDS011;1453;42.708;23.282;2023-12-28T04:36:04;69.33;;;37.90;;
2888;SDS011;1453;42.708;23.282;2023-12-28T04:38:31;79.65;;;46.75;;
2888;SDS011;1453;42.708;23.282;2023-12-28T04:40:57;66.72;;;40.45;;
2888;SDS011;1453;42.708;23.282;2023-12-28T04:43:24;70.38;;;35.13;;
2888;SDS011;1453;42.708;23.282;2023-12-28T04:45:50;45.58;;;30.42;;
2888;SDS011;1453;42.708;23.282;2023-12-28T04:48:17;55.17;;;31.50;;
2888;SDS011;1453;42.708;23.282;2023-12-28T04:50:48;46.38;;;26.73;;
2888;SDS011;1453;42.708;23.282;2023-12-28T04:53:14;36.50;;;22.50;;
2888;SDS011;1453;42.708;23.282;2023-12-28T04:55:41;44.42;;;27.23;;
2888;SDS011;1453;42.708;23.282;2023-12-28T04:58:07;49.10;;;29.23;;
2888;SDS011;1453;42.708;23.282;2023-12-28T05:00:33;55.63;;;35.47;;
2888;SDS011;1453;42.708;23.282;2023-12-28T05:02:59;61.03;;;36.35;;
2888;SDS011;1453;42.708;23.282;2023-12-28T05:05:25;50.77;;;31.40;;
2888;SDS011;1453;42.708;23.282;2023-12-28T05:07:51;48.97;;;31.02;;
2888;SDS011;1453;42.708;23.282;2023-12-28T05:10:17;49.67;;;29.60;;
2888;SDS011;1453;42.708;23.282;2023-12-28T05:12:43;51.20;;;29.90;;
2888;SDS011;1453;42.708;23.282;2023-12-28T05:15:09;38.00;;;24.93;;
2888;SDS011;1453;42.708;23.282;2023-12-28T05:17:35;47.45;;;28.83;;
2888;SDS011;1453;42.708;23.282;2023-12-28T05:20:01;42.63;;;25.57;;
2888;SDS011;1453;42.708;23.282;2023-12-28T05:22:27;45.78;;;23.98;;
2888;SDS011;1453;42.708;23.282;2023-12-28T05:24:53;43.57;;;22.70;;
2888;SDS011;1453;42.708;23.282;2023-12-28T05:27:19;41.40;;;24.90;;
2888;SDS011;1453;42.708;23.282;2023-12-28T05:29:45;42.40;;;24.53;;
2888;SDS011;1453;42.708;23.282;2023-12-28T05:32:11;39.13;;;23.83;;
2888;SDS011;1453;42.708;23.282;2023-12-28T05:34:37;40.67;;;24.23;;
2888;SDS011;1453;42.708;23.282;2023-12-28T05:37:03;44.57;;;26.20;;
2888;SDS011;1453;42.708;23.282;2023-12-28T05:39:29;43.55;;;26.40;;
2888;SDS011;1453;42.708;23.282;2023-12-28T05:41:55;41.50;;;25.10;;
2888;SDS011;1453;42.708;23.282;2023-12-28T05:44:21;38.67;;;24.50;;
2888;SDS011;1453;42.708;23.282;2023-12-28T05:46:47;38.42;;;23.15;;
2888;SDS011;1453;42.708;23.282;2023-12-28T05:49:13;39.37;;;22.73;;
2888;SDS011;1453;42.708;23.282;2023-12-28T05:51:40;42.72;;;24.67;;
2888;SDS011;1453;42.708;23.282;2023-12-28T05:54:09;36.67;;;23.50;;
2888;SDS011;1453;42.708;23.282;2023-12-28T05:56:35;41.13;;;25.85;;
2888;SDS011;1453;42.708;23.282;2023-12-28T05:59:01;49.05;;;26.63;;
2888;SDS011;1453;42.708;23.282;2023-12-28T06:01:27;42.75;;;24.17;;
2888;SDS011;1453;42.708;23.282;2023-12-28T06:03:53;54.73;;;27.67;;
2888;SDS011;1453;42.708;23.282;2023-12-28T06:06:20;50.30;;;25.00;;
2888;SDS011;1453;42.708;23.282;2023-12-28T06:08:46;53.95;;;26.23;;
2888;SDS011;1453;42.708;23.282;2023-12-28T06:11:12;41.28;;;23.27;;
2888;SDS011;1453;42.708;23.282;2023-12-28T06:13:38;39.60;;;23.77;;
2888;SDS011;1453;42.708;23.282;2023-12-28T06:16:04;42.37;;;26.33;;
2888;SDS011;1453;42.708;23.282;2023-12-28T06:18:31;42.67;;;26.05;;
2888;SDS011;1453;42.708;23.282;2023-12-28T06:20:57;47.90;;;28.23;;
2888;SDS011;1453;42.708;23.282;2023-12-28T06:23:26;45.90;;;27.08;;
2888;SDS011;1453;42.708;23.282;2023-12-28T06:25:52;46.57;;;26.10;;
2888;SDS011;1453;42.708;23.282;2023-12-28T06:28:19;44.42;;;25.15;;
2888;SDS011;1453;42.708;23.282;2023-12-28T06:30:45;38.03;;;24.20;;
2888;SDS011;1453;42.708;23.282;2023-12-28T06:33:11;43.07;;;24.63;;
2888;SDS011;1453;42.708;23.282;2023-12-28T06:35:37;42.03;;;23.43;;
2888;SDS011;1453;42.708;23.282;2023-12-28T06:38:03;32.77;;;22.80;;
2888;SDS011;1453;42.708;23.282;2023-12-28T06:40:29;36.60;;;23.70;;
2888;SDS011;1453;42.708;23.282;2023-12-28T06:42:55;37.50;;;21.53;;
2888;SDS011;1453;42.708;23.282;2023-12-28T06:45:21;38.70;;;22.20;;
2888;SDS011;1453;42.708;23.282;2023-12-28T06:47:52;35.13;;;22.10;;
2888;SDS011;1453;42.708;23.282;2023-12-28T06:50:19;38.78;;;22.83;;
2888;SDS011;1453;42.708;23.282;2023-12-28T06:52:45;40.28;;;25.23;;
2888;SDS011;1453;42.708;23.282;2023-12-28T06:55:11;46.73;;;27.70;;
2888;SDS011;1453;42.708;23.282;2023-12-28T06:57:37;49.53;;;30.60;;
2888;SDS011;1453;42.708;23.282;2023-12-28T07:00:05;48.83;;;28.47;;
2888;SDS011;1453;42.708;23.282;2023-12-28T07:02:32;53.23;;;29.27;;
2888;SDS011;1453;42.708;23.282;2023-12-28T07:04:58;42.67;;;28.30;;
2888;SDS011;1453;42.708;23.282;2023-12-28T07:07:24;58.13;;;30.43;;
2888;SDS011;1453;42.708;23.282;2023-12-28T07:09:53;44.93;;;30.00;;
2888;SDS011;1453;42.708;23.282;2023-12-28T07:12:19;55.53;;;32.87;;
2888;SDS011;1453;42.708;23.282;2023-12-28T07:14:45;53.67;;;33.30;;
2888;SDS011;1453;42.708;23.282;2023-12-28T07:17:12;48.70;;;31.20;;
2888;SDS011;1453;42.708;23.282;2023-12-28T07:19:42;45.43;;;28.60;;
2888;SDS011;1453;42.708;23.282;2023-12-28T07:22:09;52.27;;;27.90;;
2888;SDS011;1453;42.708;23.282;2023-12-28T07:24:35;42.33;;;25.10;;
2888;SDS011;1453;42.708;23.282;2023-12-28T07:27:01;36.73;;;24.40;;
2888;SDS011;1453;42.708;23.282;2023-12-28T07:29:27;36.60;;;24.67;;
2888;SDS011;1453;42.708;23.282;2023-12-28T07:31:53;35.10;;;24.87;;
2888;SDS011;1453;42.708;23.282;2023-12-28T07:34:19;38.73;;;26.67;;
2888;SDS011;1453;42.708;23.282;2023-12-28T07:36:45;37.07;;;26.60;;
2888;SDS011;1453;42.708;23.282;2023-12-28T07:39:11;37.53;;;27.17;;
2888;SDS011;1453;42.708;23.282;2023-12-28T07:41:37;39.47;;;28.00;;
2888;SDS011;1453;42.708;23.282;2023-12-28T07:44:04;42.80;;;26.47;;
2888;SDS011;1453;42.708;23.282;2023-12-28T07:46:29;40.93;;;27.93;;
2888;SDS011;1453;42.708;23.282;2023-12-28T07:48:55;34.93;;;27.03;;
2888;SDS011;1453;42.708;23.282;2023-12-28T07:51:21;37.77;;;26.70;;
2888;SDS011;1453;42.708;23.282;2023-12-28T07:53:47;41.43;;;26.83;;
2888;SDS011;1453;42.708;23.282;2023-12-28T07:56:16;37.07;;;27.70;;
2888;SDS011;1453;42.708;23.282;2023-12-28T07:58:42;38.20;;;27.63;;
2888;SDS011;1453;42.708;23.282;2023-12-28T08:01:11;40.10;;;28.83;;
2888;SDS011;1453;42.708;23.282;2023-12-28T08:03:37;38.67;;;28.43;;
2888;SDS011;1453;42.708;23.282;2023-12-28T08:06:03;40.53;;;27.00;;
2888;SDS011;1453;42.708;23.282;2023-12-28T08:08:30;40.67;;;27.70;;
2888;SDS011;1453;42.708;23.282;2023-12-28T08:10:56;36.67;;;28.77;;
2888;SDS011;1453;42.708;23.282;2023-12-28T08:13:22;34.83;;;24.97;;
2888;SDS011;1453;42.708;23.282;2023-12-28T08:15:48;33.83;;;25.93;;
2888;SDS011;1453;42.708;23.282;2023-12-28T08:18:14;35.10;;;25.50;;
2888;SDS011;1453;42.708;23.282;2023-12-28T08:20:40;34.53;;;25.17;;
2888;SDS011;1453;42.708;23.282;2023-12-28T08:23:06;31.13;;;25.13;;
2888;SDS011;1453;42.708;23.282;2023-12-28T08:25:32;43.53;;;25.60;;
2888;SDS011;1453;42.708;23.282;2023-12-28T08:27:58;32.43;;;23.83;;
2888;SDS011;1453;42.708;23.282;2023-12-28T08:30:24;40.47;;;27.13;;
2888;SDS011;1453;42.708;23.282;2023-12-28T08:32:50;32.20;;;25.43;;
2888;SDS011;1453;42.708;23.282;2023-12-28T08:35:16;35.70;;;27.03;;
2888;SDS011;1453;42.708;23.282;2023-12-28T08:37:42;41.00;;;26.83;;
2888;SDS011;1453;42.708;23.282;2023-12-28T08:40:08;35.93;;;27.67;;
2888;SDS011;1453;42.708;23.282;2023-12-28T08:42:34;32.60;;;27.30;;
2888;SDS011;1453;42.708;23.282;2023-12-28T08:45:00;38.23;;;25.60;;
2888;SDS011;1453;42.708;23.282;2023-12-28T08:47:26;56.67;;;36.40;;
2888;SDS011;1453;42.708;23.282;2023-12-28T08:49:52;38.83;;;26.63;;
2888;SDS011;1453;42.708;23.282;2023-12-28T08:52:18;31.20;;;25.83;;
2888;SDS011;1453;42.708;23.282;2023-12-28T08:54:44;32.67;;;25.80;;
2888;SDS011;1453;42.708;23.282;2023-12-28T08:57:10;32.80;;;24.73;;
2888;SDS011;1453;42.708;23.282;2023-12-28T08:59:36;38.67;;;28.20;;
2888;SDS011;1453;42.708;23.282;2023-12-28T09:02:03;37.03;;;27.43;;
2888;SDS011;1453;42.708;23.282;2023-12-28T09:04:29;36.83;;;30.20;;
2888;SDS011;1453;42.708;23.282;2023-12-28T09:06:55;40.60;;;29.20;;
2888;SDS011;1453;42.708;23.282;2023-12-28T09:09:21;43.57;;;31.53;;
2888;SDS011;1453;42.708;23.282;2023-12-28T09:11:47;47.33;;;36.33;;
2888;SDS011;1453;42.708;23.282;2023-12-28T09:14:13;52.43;;;37.07;;
2888;SDS011;1453;42.708;23.282;2023-12-28T09:16:39;51.40;;;40.33;;
2888;SDS011;1453;42.708;23.282;2023-12-28T09:19:07;54.87;;;39.93;;
2888;SDS011;1453;42.708;23.282;2023-12-28T09:21:33;54.83;;;40.97;;
2888;SDS011;1453;42.708;23.282;2023-12-28T09:23:59;52.87;;;39.20;;
2888;SDS011;1453;42.708;23.282;2023-12-28T09:26:25;60.00;;;41.83;;
2888;SDS011;1453;42.708;23.282;2023-12-28T09:28:51;51.57;;;40.53;;
2888;SDS011;1453;42.708;23.282;2023-12-28T09:31:17;65.10;;;46.77;;
2888;SDS011;1453;42.708;23.282;2023-12-28T09:33:43;56.30;;;42.03;;
2888;SDS011;1453;42.708;23.282;2023-12-28T09:36:09;56.70;;;41.83;;
2888;SDS011;1453;42.708;23.282;2023-12-28T09:38:38;55.23;;;38.43;;
2888;SDS011;1453;42.708;23.282;2023-12-28T09:41:09;58.13;;;41.30;;
2888;SDS011;1453;42.708;23.282;2023-12-28T09:43:44;53.00;;;38.87;;
2888;SDS011;1453;42.708;23.282;2023-12-28T09:46:46;49.97;;;38.60;;
2888;SDS011;1453;42.708;23.282;2023-12-28T09:49:13;55.90;;;40.13;;
2888;SDS011;1453;42.708;23.282;2023-12-28T09:51:39;59.17;;;41.13;;
2888;SDS011;1453;42.708;23.282;2023-12-28T09:54:05;57.10;;;39.60;;
2888;SDS011;1453;42.708;23.282;2023-12-28T09:56:32;53.70;;;37.40;;
2888;SDS011;1453;42.708;23.282;2023-12-28T09:58:58;50.43;;;38.90;;
2888;SDS011;1453;42.708;23.282;2023-12-28T10:01:24;50.77;;;38.83;;
2888;SDS011;1453;42.708;23.282;2023-12-28T10:03:51;48.90;;;39.27;;
2888;SDS011;1453;42.708;23.282;2023-12-28T10:06:17;56.40;;;38.03;;
2888;SDS011;1453;42.708;23.282;2023-12-28T10:08:46;45.87;;;37.30;;
2888;SDS011;1453;42.708;23.282;2023-12-28T10:11:19;55.10;;;40.33;;
2888;SDS011;1453;42.708;23.282;2023-12-28T10:13:45;50.90;;;38.17;;
2888;SDS011;1453;42.708;23.282;2023-12-28T10:16:14;51.73;;;37.47;;
2888;SDS011;1453;42.708;23.282;2023-12-28T10:18:41;55.60;;;36.70;;
2888;SDS011;1453;42.708;23.282;2023-12-28T10:21:08;50.47;;;38.33;;
2888;SDS011;1453;42.708;23.282;2023-12-28T10:23:35;49.77;;;37.90;;
2888;SDS011;1453;42.708;23.282;2023-12-28T10:26:01;51.10;;;37.97;;
2888;SDS011;1453;42.708;23.282;2023-12-28T10:28:32;46.53;;;39.30;;
2888;SDS011;1453;42.708;23.282;2023-12-28T10:31:02;51.13;;;40.10;;
2888;SDS011;1453;42.708;23.282;2023-12-28T10:33:28;54.43;;;40.03;;
2888;SDS011;1453;42.708;23.282;2023-12-28T10:36:08;50.87;;;44.17;;
2888;SDS011;1453;42.708;23.282;2023-12-28T10:38:35;59.73;;;43.87;;
2888;SDS011;1453;42.708;23.282;2023-12-28T10:41:11;57.83;;;42.50;;
2888;SDS011;1453;42.708;23.282;2023-12-28T10:46:14;51.37;;;41.00;;
2888;SDS011;1453;42.708;23.282;2023-12-28T10:49:00;48.77;;;40.13;;
2888;SDS011;1453;42.708;23.282;2023-12-28T10:51:35;52.33;;;39.50;;
2888;SDS011;1453;42.708;23.282;2023-12-28T10:54:11;50.77;;;41.37;;
2888;SDS011;1453;42.708;23.282;2023-12-28T10:56:49;49.80;;;37.67;;
2888;SDS011;1453;42.708;23.282;2023-12-28T10:59:25;49.83;;;40.47;;
2888;SDS011;1453;42.708;23.282;2023-12-28T11:02:06;50.90;;;40.13;;
2888;SDS011;1453;42.708;23.282;2023-12-28T11:04:37;47.67;;;40.40;;
2888;SDS011;1453;42.708;23.282;2023-12-28T11:07:15;47.07;;;38.40;;
2888;SDS011;1453;42.708;23.282;2023-12-28T11:09:44;48.93;;;40.27;;
2888;SDS011;1453;42.708;23.282;2023-12-28T11:12:10;49.10;;;39.63;;
2888;SDS011;1453;42.708;23.282;2023-12-28T11:14:40;45.87;;;39.60;;
2888;SDS011;1453;42.708;23.282;2023-12-28T11:17:09;50.83;;;41.93;;
2888;SDS011;1453;42.708;23.282;2023-12-28T11:19:39;49.80;;;42.00;;
2888;SDS011;1453;42.708;23.282;2023-12-28T11:22:06;43.80;;;38.50;;
2888;SDS011;1453;42.708;23.282;2023-12-28T11:24:33;45.90;;;40.87;;
2888;SDS011;1453;42.708;23.282;2023-12-28T11:27:00;49.70;;;43.17;;
2888;SDS011;1453;42.708;23.282;2023-12-28T11:29:29;51.73;;;43.17;;
2888;SDS011;1453;42.708;23.282;2023-12-28T11:31:58;56.33;;;42.63;;
2888;SDS011;1453;42.708;23.282;2023-12-28T11:34:28;45.53;;;40.70;;
2888;SDS011;1453;42.708;23.282;2023-12-28T11:36:57;43.27;;;37.07;;
2888;SDS011;1453;42.708;23.282;2023-12-28T11:39:32;44.43;;;36.67;;
2888;SDS011;1453;42.708;23.282;2023-12-28T11:42:04;44.40;;;37.93;;
2888;SDS011;1453;42.708;23.282;2023-12-28T11:44:37;43.33;;;37.40;;
2888;SDS011;1453;42.708;23.282;2023-12-28T11:49:38;34.20;;;30.40;;
2888;SDS011;1453;42.708;23.282;2023-12-28T11:52:08;35.03;;;31.13;;
2888;SDS011;1453;42.708;23.282;2023-12-28T11:54:36;36.70;;;32.63;;
2888;SDS011;1453;42.708;23.282;2023-12-28T11:57:02;40.17;;;30.27;;
2888;SDS011;1453;42.708;23.282;2023-12-28T11:59:28;32.00;;;28.63;;
2888;SDS011;1453;42.708;23.282;2023-12-28T12:01:57;32.67;;;29.20;;
2888;SDS011;1453;42.708;23.282;2023-12-28T12:04:24;35.83;;;30.33;;
2888;SDS011;1453;42.708;23.282;2023-12-28T12:06:50;34.70;;;28.43;;
2888;SDS011;1453;42.708;23.282;2023-12-28T12:09:17;32.60;;;29.20;;
2888;SDS011;1453;42.708;23.282;2023-12-28T12:11:47;31.87;;;28.40;;
2888;SDS011;1453;42.708;23.282;2023-12-28T12:14:14;34.30;;;26.70;;
2888;SDS011;1453;42.708;23.282;2023-12-28T12:16:40;39.90;;;29.63;;
2888;SDS011;1453;42.708;23.282;2023-12-28T12:19:06;30.60;;;27.20;;
2888;SDS011;1453;42.708;23.282;2023-12-28T12:21:33;28.23;;;25.53;;
2888;SDS011;1453;42.708;23.282;2023-12-28T12:24:00;25.40;;;22.67;;
2888;SDS011;1453;42.708;23.282;2023-12-28T12:26:26;29.00;;;24.40;;
2888;SDS011;1453;42.708;23.282;2023-12-28T12:28:55;29.53;;;26.20;;
2888;SDS011;1453;42.708;23.282;2023-12-28T12:31:21;34.27;;;30.10;;
2888;SDS011;1453;42.708;23.282;2023-12-28T12:33:48;33.40;;;29.93;;
2888;SDS011;1453;42.708;23.282;2023-12-28T12:36:15;38.30;;;32.60;;
2888;SDS011;1453;42.708;23.282;2023-12-28T12:38:41;36.07;;;32.37;;
2888;SDS011;1453;42.708;23.282;2023-12-28T12:41:09;45.47;;;32.40;;
2888;SDS011;1453;42.708;23.282;2023-12-28T12:43:37;37.53;;;30.33;;
2888;SDS011;1453;42.708;23.282;2023-12-28T12:46:03;36.43;;;29.77;;
2888;SDS011;1453;42.708;23.282;2023-12-28T12:48:30;31.23;;;28.10;;
2888;SDS011;1453;42.708;23.282;2023-12-28T12:50:56;31.30;;;27.17;;
2888;SDS011;1453;42.708;23.282;2023-12-28T12:53:21;36.03;;;29.67;;
2888;SDS011;1453;42.708;23.282;2023-12-28T12:55:48;35.10;;;29.57;;
2888;SDS011;1453;42.708;23.282;2023-12-28T12:58:19;33.07;;;29.40;;
2888;SDS011;1453;42.708;23.282;2023-12-28T13:00:47;34.13;;;30.20;;
2888;SDS011;1453;42.708;23.282;2023-12-28T13:03:13;33.97;;;30.33;;
2888;SDS011;1453;42.708;23.282;2023-12-28T13:05:39;34.03;;;30.30;;
2888;SDS011;1453;42.708;23.282;2023-12-28T13:08:09;31.67;;;28.40;;
2888;SDS011;1453;42.708;23.282;2023-12-28T13:10:35;34.23;;;27.70;;
2888;SDS011;1453;42.708;23.282;2023-12-28T13:13:01;28.90;;;25.50;;
2888;SDS011;1453;42.708;23.282;2023-12-28T13:15:27;28.67;;;25.63;;
2888;SDS011;1453;42.708;23.282;2023-12-28T13:17:53;26.90;;;24.20;;
2888;SDS011;1453;42.708;23.282;2023-12-28T13:20:19;35.30;;;31.90;;
2888;SDS011;1453;42.708;23.282;2023-12-28T13:22:45;40.97;;;36.93;;
2888;SDS011;1453;42.708;23.282;2023-12-28T13:25:12;38.60;;;34.57;;
2888;SDS011;1453;42.708;23.282;2023-12-28T13:27:38;38.83;;;34.77;;
2888;SDS011;1453;42.708;23.282;2023-12-28T13:30:04;40.63;;;36.37;;
2888;SDS011;1453;42.708;23.282;2023-12-28T13:32:31;41.10;;;37.00;;
2888;SDS011;1453;42.708;23.282;2023-12-28T13:34:57;36.90;;;32.80;;
2888;SDS011;1453;42.708;23.282;2023-12-28T13:37:23;32.10;;;28.40;;
2888;SDS011;1453;42.708;23.282;2023-12-28T13:39:49;29.07;;;26.17;;
2888;SDS011;1453;42.708;23.282;2023-12-28T13:42:15;31.00;;;27.80;;
2888;SDS011;1453;42.708;23.282;2023-12-28T13:44:41;35.37;;;28.93;;
2888;SDS011;1453;42.708;23.282;2023-12-28T13:47:08;33.90;;;30.40;;
2888;SDS011;1453;42.708;23.282;2023-12-28T13:49:34;30.00;;;26.80;;
2888;SDS011;1453;42.708;23.282;2023-12-28T13:52:01;30.97;;;27.83;;
2888;SDS011;1453;42.708;23.282;2023-12-28T13:54:27;32.20;;;28.90;;
2888;SDS011;1453;42.708;23.282;2023-12-28T13:56:53;33.53;;;29.80;;
2888;SDS011;1453;42.708;23.282;2023-12-28T13:59:23;29.60;;;26.47;;
2888;SDS011;1453;42.708;23.282;2023-12-28T14:01:48;29.23;;;26.33;;
2888;SDS011;1453;42.708;23.282;2023-12-28T14:04:15;29.73;;;26.60;;
2888;SDS011;1453;42.708;23.282;2023-12-28T14:06:41;33.80;;;27.77;;
2888;SDS011;1453;42.708;23.282;2023-12-28T14:09:07;33.57;;;25.27;;
2888;SDS011;1453;42.708;23.282;2023-12-28T14:11:33;33.47;;;26.33;;
2888;SDS011;1453;42.708;23.282;2023-12-28T14:13:59;35.70;;;25.37;;
2888;SDS011;1453;42.708;23.282;2023-12-28T14:16:25;32.40;;;26.00;;
2888;SDS011;1453;42.708;23.282;2023-12-28T14:18:52;31.30;;;22.90;;
2888;SDS011;1453;42.708;23.282;2023-12-28T14:21:18;28.93;;;23.87;;
2888;SDS011;1453;42.708;23.282;2023-12-28T14:23:44;35.80;;;24.40;;
2888;SDS011;1453;42.708;23.282;2023-12-28T14:26:14;26.97;;;23.97;;
2888;SDS011;1453;42.708;23.282;2023-12-28T14:28:44;25.90;;;22.73;;
2888;SDS011;1453;42.708;23.282;2023-12-28T14:31:10;31.90;;;24.77;;
2888;SDS011;1453;42.708;23.282;2023-12-28T14:33:38;35.70;;;27.40;;
2888;SDS011;1453;42.708;23.282;2023-12-28T14:36:08;34.33;;;26.23;;
2888;SDS011;1453;42.708;23.282;2023-12-28T14:39:01;39.87;;;25.60;;
2888;SDS011;1453;42.708;23.282;2023-12-28T14:41:31;41.97;;;25.93;;